Terminal Aerodrome Forecast
Issued by NWS

Home | Current Version | Previous Version | Text Only | Print | Product List | Glossary On
Versions: 1 2 3 4 5 6 7 8 9 10 11 12 13 14 15 16 17 18 19 20 21 22 23 24
000
FTUS45 KTFX 270500
TAFLWT
TAF
KLWT 270530Z 2706/2806 12009KT P6SM BKN090
     FM271200 23015KT P6SM SCT090 BKN150
     FM280000 26022G30KT P6SM SCT150=

USA.gov is the U.S. government's official web portal to all federal, state and local government web resources and services.